Time;durP1;ratioP1;P1;durP2;ratioP2;P2;SDS_P1;SDS_P2;PMS_P1;PMS_P2;Temp;Humidity;BMP_temperature;BMP_pressure;BME280_temperature;BME280_humidity;BME280_pressure;Samples;Min_cycle;Max_cycle;Signal;HPM_P1;HPM_P2
2022/10/20 00:01:35;;;;;;;1.20;1.00;;;;;;;3.84;82.03;99337.05;106531;1305;22581;-61
2022/10/20 00:04:01;;;;;;;;;;;;;;;3.82;82.43;99336.44;106612;1303;22397;-61
2022/10/20 00:06:30;;;;;;;1.40;1.10;;;;;;;3.82;82.86;99339.59;106633;1303;125943;-61
2022/10/20 00:08:58;;;;;;;2.40;1.20;;;;;;;3.82;83.12;99342.66;106604;1303;22158;-61
2022/10/20 00:11:26;;;;;;;1.10;0.90;;;;;;;3.82;83.39;99347.67;106519;1295;137766;-64
2022/10/20 00:13:53;;;;;;;4.40;0.90;;;;;;;3.79;83.61;99351.13;106610;1303;22217;-61
2022/10/20 00:16:20;;;;;;;2.10;0.90;;;;;;;3.76;83.61;99352.30;106617;1305;22990;-61
2022/10/20 00:18:47;;;;;;;1.50;0.90;;;;;;;3.75;83.59;99352.08;106488;1297;138717;-62
2022/10/20 00:21:15;;;;;;;1.80;1.00;;;;;;;3.72;83.77;99357.58;106579;1305;22165;-61
2022/10/20 00:23:42;;;;;;;0.80;0.80;;;;;;;3.69;83.54;99356.55;106444;1305;138802;-61
2022/10/20 00:26:14;;;;;;;1.40;1.10;;;;;;;3.67;82.93;99358.60;106608;1305;22138;-62
2022/10/20 00:28:41;;;;;;;1.60;1.00;;;;;;;3.65;82.86;99355.54;106601;1305;22230;-62
2022/10/20 00:31:08;;;;;;;1.20;1.00;;;;;;;3.63;82.73;99357.41;106494;1305;137769;-62
2022/10/20 00:33:35;;;;;;;1.30;0.80;;;;;;;3.60;82.60;99359.23;106581;1304;22133;-62
2022/10/20 00:36:03;;;;;;;1.90;1.10;;;;;;;3.55;82.55;99360.45;106505;1302;138193;-62
2022/10/20 00:38:30;;;;;;;1.20;0.90;;;;;;;3.50;82.36;99361.52;106623;1304;22374;-62
2022/10/20 00:40:58;;;;;;;2.50;0.90;;;;;;;3.48;82.24;99360.53;106626;1302;138661;-58
2022/10/20 00:43:43;;;;;;;4.50;1.20;;;;;;;3.46;82.16;99362.23;106612;1305;22199;-58
2022/10/20 00:46:14;;;;;;;1.40;0.90;;;;;;;3.44;82.16;99364.05;106725;1302;22624;-58
2022/10/20 00:48:41;;;;;;;1.20;1.00;;;;;;;3.40;82.15;99365.18;106426;1305;138245;-57
2022/10/20 00:51:08;;;;;;;0.70;0.70;;;;;;;3.36;82.27;99364.45;106561;1305;22197;-58
2022/10/20 00:53:35;;;;;;;1.80;1.10;;;;;;;3.35;81.99;99366.86;106523;1303;138512;-58
2022/10/20 00:56:02;;;;;;;1.10;0.70;;;;;;;3.34;81.93;99369.05;106530;1305;22243;-58
2022/10/20 00:58:28;;;;;;;1.40;0.80;;;;;;;3.33;82.14;99367.45;106679;1303;23219;-57
2022/10/20 01:00:56;;;;;;;1.90;1.00;;;;;;;3.31;82.17;99371.77;106493;1305;138032;-58
2022/10/20 01:03:26;;;;;;;3.60;1.10;;;;;;;3.30;82.11;99373.83;106543;1303;22176;-58
2022/10/20 01:05:53;;;;;;;2.00;0.80;;;;;;;3.29;82.09;99372.29;106441;1305;138247;-58
2022/10/20 01:08:20;;;;;;;;;;;;;;;3.29;82.04;99376.11;106599;1305;22364;-58
2022/10/20 01:11:26;;;;;;;1.10;0.80;;;;;;;3.28;81.80;99375.45;106496;1297;124402;-58
2022/10/20 01:14:11;;;;;;;5.10;0.90;;;;;;;3.27;81.78;99379.21;106208;1309;22179;-58
2022/10/20 01:16:41;;;;;;;2.70;0.90;;;;;;;3.26;81.52;99379.67;106328;1308;22308;-57
2022/10/20 01:19:55;;;;;;;3.40;0.90;;;;;;;3.28;81.82;99379.38;105862;1310;23095;-58
2022/10/20 01:22:34;;;;;;;1.00;0.80;;;;;;;3.28;81.44;99375.03;105505;1313;22183;-57
2022/10/20 01:25:16;;;;;;;3.50;1.00;;;;;;;3.30;81.33;99378.96;105313;1317;138436;-58
2022/10/20 01:27:47;;;;;;;0.90;0.80;;;;;;;3.28;81.32;99379.42;105399;1317;22326;-57
2022/10/20 01:30:19;;;;;;;1.10;0.80;;;;;;;3.27;81.33;99377.73;105182;1320;139195;-57
2022/10/20 01:32:54;;;;;;;1.80;0.70;;;;;;;3.28;81.52;99382.40;105207;1317;23057;-58
2022/10/20 01:35:24;;;;;;;0.80;0.80;;;;;;;3.28;81.46;99385.14;105320;1317;138969;-58
2022/10/20 01:37:58;;;;;;;3.50;0.90;;;;;;;3.23;81.28;99387.05;105384;1308;22327;-58
2022/10/20 01:40:26;;;;;;;1.60;0.90;;;;;;;3.19;81.24;99384.95;105451;1317;22234;-61
2022/10/20 01:42:53;;;;;;;2.50;1.30;;;;;;;3.16;81.32;99386.55;105303;1317;139562;-62
2022/10/20 01:45:20;;;;;;;4.10;1.00;;;;;;;3.15;81.55;99390.00;105491;1317;22177;-61
2022/10/20 01:47:47;;;;;;;;;;;;;;;3.12;81.52;99388.89;105244;1317;139072;-61
2022/10/20 01:50:14;;;;;;;5.80;2.30;;;;;;;3.09;81.66;99390.84;105706;1313;22216;-61
2022/10/20 01:52:41;;;;;;;6.00;1.80;;;;;;;3.06;81.67;99397.02;105924;1305;22236;-61
2022/10/20 01:55:11;;;;;;;;;;;;;;;3.02;81.71;99394.64;106466;1305;138030;-61
2022/10/20 01:57:59;;;;;;;3.30;1.60;;;;;;;3.03;81.96;99401.42;106464;1305;22702;-61
2022/10/20 02:00:25;;;;;;;2.30;1.20;;;;;;;3.05;82.13;99411.34;106363;1305;138302;-61
2022/10/20 02:02:55;;;;;;;;;;;;;;;3.08;82.22;99414.36;106487;1306;23240;-62
2022/10/20 02:05:32;;;;;;;0.80;0.80;;;;;;;3.10;82.14;99419.23;106445;1305;124811;-62
2022/10/20 02:08:29;;;;;;;2.70;1.50;;;;;;;3.10;81.93;99412.75;106436;1308;22894;-62
2022/10/20 02:10:58;;;;;;;2.10;0.90;;;;;;;3.10;82.02;99412.73;106442;1290;138373;-62
2022/10/20 02:13:24;;;;;;;2.50;0.90;;;;;;;3.12;81.80;99411.66;106326;1293;23225;-62
2022/10/20 02:15:53;;;;;;;5.30;0.90;;;;;;;3.13;81.82;99418.61;106482;1305;22199;-62
2022/10/20 02:18:23;;;;;;;2.10;0.90;;;;;;;3.16;81.88;99419.69;106320;1300;138732;-61
2022/10/20 02:20:51;;;;;;;1.50;1.00;;;;;;;3.18;81.56;99418.58;106328;1305;22144;-61
2022/10/20 02:23:17;;;;;;;1.40;1.10;;;;;;;3.22;81.71;99425.66;106360;1306;139228;-60
2022/10/20 02:25:45;;;;;;;;;;;;;;;3.24;81.59;99423.09;106263;1313;23214;-61
2022/10/20 02:28:12;;;;;;;5.20;1.10;;;;;;;3.26;81.83;99421.67;106694;1305;22160;-61
2022/10/20 02:30:39;;;;;;;0.80;0.80;;;;;;;3.29;81.97;99425.23;106438;1305;138546;-61
2022/10/20 02:33:05;;;;;;;1.60;0.90;;;;;;;3.34;82.12;99420.81;106475;1305;22397;-61
2022/10/20 02:35:33;;;;;;;1.80;0.90;;;;;;;3.37;82.06;99424.39;106543;1302;139112;-61
2022/10/20 02:38:00;;;;;;;1.50;0.70;;;;;;;3.39;81.98;99426.25;106742;1302;22236;-61
2022/10/20 02:40:27;;;;;;;1.10;0.90;;;;;;;3.38;81.72;99426.59;104245;1297;26166;-60
2022/10/20 02:42:54;;;;;;;;;;;;;;;3.38;81.99;99426.84;102255;1305;138660;-60
2022/10/20 02:45:20;;;;;;;1.00;0.80;;;;;;;3.37;81.81;99427.67;102249;1281;22648;-60
2022/10/20 02:47:47;;;;;;;2.10;1.10;;;;;;;3.35;81.87;99429.25;102020;1291;137822;-60
2022/10/20 02:50:15;;;;;;;;;;;;;;;3.34;81.79;99434.84;102232;1312;22486;-60
2022/10/20 02:52:42;;;;;;;1.60;1.00;;;;;;;3.32;81.79;99435.57;102200;1312;23910;-60
2022/10/20 02:55:09;;;;;;;;;;;;;;;3.29;81.59;99438.04;102261;1310;22453;-61
2022/10/20 02:57:36;;;;;;;1.30;1.00;;;;;;;3.25;81.66;99437.09;102228;1312;24311;-60
2022/10/20 03:00:05;;;;;;;3.80;1.20;;;;;;;3.23;81.88;99438.30;102192;1312;137687;-60
2022/10/20 03:02:32;;;;;;;1.10;0.80;;;;;;;3.21;81.66;99438.95;106629;1305;22130;-62
2022/10/20 03:04:59;;;;;;;;;;;;;;;3.18;81.61;99444.98;106590;1299;138294;-61
2022/10/20 03:07:25;;;;;;;5.00;1.80;;;;;;;3.14;81.81;99443.02;106619;1305;22217;-61
2022/10/20 03:09:52;;;;;;;2.40;2.20;;;;;;;3.13;82.22;99447.32;106753;1303;22123;-61
2022/10/20 03:12:19;;;;;;;;;;;;;;;3.13;82.03;99440.27;106518;1305;138268;-63
2022/10/20 03:14:46;;;;;;;2.90;1.50;;;;;;;3.16;81.84;99447.27;106591;1305;22930;-63
2022/10/20 03:17:12;;;;;;;2.90;1.00;;;;;;;3.17;81.68;99447.13;106488;1305;137946;-60
2022/10/20 03:19:40;;;;;;;3.70;1.60;;;;;;;3.18;81.69;99445.17;106601;1305;22589;-61
2022/10/20 03:22:06;;;;;;;2.80;1.70;;;;;;;3.19;81.59;99443.42;106603;1297;22198;-60
2022/10/20 03:24:33;;;;;;;1.70;1.30;;;;;;;3.21;81.74;99444.63;106629;1294;138740;-60
2022/10/20 03:27:00;;;;;;;1.70;1.30;;;;;;;3.23;81.92;99441.64;106598;1305;22136;-63
2022/10/20 03:29:27;;;;;;;1.80;1.70;;;;;;;3.25;81.74;99442.47;106487;1305;137966;-61
2022/10/20 03:31:53;;;;;;;2.10;1.40;;;;;;;3.24;81.62;99436.88;106600;1305;22188;-62
2022/10/20 03:34:20;;;;;;;7.80;1.20;;;;;;;3.23;81.85;99439.16;106599;1305;22095;-61
2022/10/20 03:36:47;;;;;;;1.50;1.20;;;;;;;3.25;81.74;99439.86;106486;1305;138814;-61
2022/10/20 03:39:14;;;;;;;3.40;2.60;;;;;;;3.27;81.69;99444.78;106419;1305;22695;-56
2022/10/20 03:41:40;;;;;;;1.80;1.70;;;;;;;3.27;81.75;99445.12;102103;1312;138154;-56
2022/10/20 03:44:09;;;;;;;2.60;2.20;;;;;;;3.23;81.17;99443.26;102233;1312;25678;-57
2022/10/20 03:46:36;;;;;;;1.70;1.20;;;;;;;3.18;81.33;99450.52;106607;1297;22137;-56
2022/10/20 03:49:03;;;;;;;3.00;1.40;;;;;;;3.17;81.43;99449.61;106607;1303;137591;-56
2022/10/20 03:51:29;;;;;;;4.30;1.60;;;;;;;3.17;81.37;99451.98;106630;1305;23238;-56
2022/10/20 03:53:56;;;;;;;9.00;3.10;;;;;;;3.16;81.37;99451.95;106614;1302;139050;-56
2022/10/20 03:56:23;;;;;;;5.10;1.80;;;;;;;3.17;81.51;99457.78;106595;1305;22146;-57
2022/10/20 03:58:50;;;;;;;3.10;1.80;;;;;;;3.17;81.26;99455.16;106508;1305;137865;-57
2022/10/20 04:01:17;;;;;;;;;;;;;;;3.17;81.25;99455.70;106625;1306;22338;-57
2022/10/20 04:03:44;;;;;;;2.40;1.20;;;;;;;3.13;81.31;99455.60;106590;1305;22185;-57
2022/10/20 04:06:11;;;;;;;;;;;;;;;3.10;81.47;99456.97;106494;1303;138611;-57
2022/10/20 04:08:38;;;;;;;1.30;1.10;;;;;;;3.08;81.45;99454.20;106606;1305;22228;-57
2022/10/20 04:11:05;;;;;;;1.80;1.10;;;;;;;3.06;81.50;99456.27;106425;1305;138068;-57
2022/10/20 04:13:32;;;;;;;4.60;1.50;;;;;;;3.06;81.59;99457.42;106601;1305;22260;-57
2022/10/20 04:15:59;;;;;;;;;;;;;;;3.06;81.53;99452.46;106603;1305;22426;-57
2022/10/20 04:18:25;;;;;;;1.50;1.20;;;;;;;3.07;81.47;99449.44;106520;1302;123826;-57
2022/10/20 04:20:52;;;;;;;2.60;1.30;;;;;;;3.09;81.69;99457.42;106713;1305;22257;-58
2022/10/20 04:23:19;;;;;;;3.60;1.10;;;;;;;3.07;81.26;99456.30;106560;1305;137894;-57
2022/10/20 04:25:47;;;;;;;;;;;;;;;3.05;81.49;99458.13;106616;1305;22435;-57
2022/10/20 04:28:15;;;;;;;2.20;0.80;;;;;;;3.03;81.68;99459.40;106625;1297;22888;-57
2022/10/20 04:30:42;;;;;;;1.30;1.00;;;;;;;2.99;81.72;99453.94;106573;1303;138240;-58
2022/10/20 04:33:09;;;;;;;1.50;0.80;;;;;;;2.98;81.81;99459.45;106560;1305;22144;-57
2022/10/20 04:35:35;;;;;;;2.60;1.20;;;;;;;2.98;81.79;99462.42;106589;1303;137628;-57
2022/10/20 04:38:02;;;;;;;5.30;1.10;;;;;;;2.95;81.78;99465.29;106613;1297;22137;-58
2022/10/20 04:40:29;;;;;;;;;;;;;;;2.94;81.94;99468.43;106721;1303;22429;-59
2022/10/20 04:42:58;;;;;;;1.20;0.90;;;;;;;2.95;81.98;99465.29;106650;1294;125631;-58
2022/10/20 04:45:25;;;;;;;1.90;1.10;;;;;;;2.95;81.88;99468.14;106713;1303;22174;-57
2022/10/20 04:47:52;;;;;;;0.90;0.90;;;;;;;2.97;81.84;99468.48;106560;1305;138255;-57
2022/10/20 04:50:19;;;;;;;1.70;1.20;;;;;;;2.99;81.99;99471.91;106595;1305;22147;-58
2022/10/20 04:53:05;;;;;;;1.40;1.00;;;;;;;3.00;81.84;99479.83;106461;1303;137711;-57
2022/10/20 04:55:32;;;;;;;3.60;1.20;;;;;;;3.00;81.65;99478.25;106604;1305;22250;-58
2022/10/20 04:57:59;;;;;;;1.30;1.20;;;;;;;3.01;81.77;99480.02;106603;1305;22214;-58
2022/10/20 05:00:25;;;;;;;2.40;1.40;;;;;;;3.01;81.76;99483.09;106464;1306;138126;-58
2022/10/20 05:02:53;;;;;;;2.10;1.50;;;;;;;3.01;81.72;99482.30;106627;1299;22097;-57
2022/10/20 05:05:20;;;;;;;2.00;0.80;;;;;;;3.00;81.93;99484.73;106625;1303;139151;-58
2022/10/20 05:07:47;;;;;;;2.10;1.10;;;;;;;3.00;82.05;99488.27;106609;1305;22123;-57
2022/10/20 05:10:14;;;;;;;1.40;1.00;;;;;;;3.03;81.94;99498.64;106742;1303;22129;-58
2022/10/20 05:12:40;;;;;;;;;;;;;;;3.04;81.78;99497.55;106497;1305;137834;-56
2022/10/20 05:15:07;;;;;;;1.10;1.00;;;;;;;3.03;81.91;99496.44;106592;1306;22172;-57
2022/10/20 05:17:34;;;;;;;2.30;1.10;;;;;;;3.02;81.91;99501.72;106504;1293;139387;-57
2022/10/20 05:20:01;;;;;;;4.20;1.70;;;;;;;2.99;82.08;99500.52;106587;1304;22282;-57
2022/10/20 05:22:29;;;;;;;;;;;;;;;2.97;82.39;99502.84;106621;1297;22384;-57
2022/10/20 05:24:56;;;;;;;2.70;1.60;;;;;;;2.99;82.65;99502.63;106603;1303;125011;-57
2022/10/20 05:27:38;;;;;;;2.20;1.60;;;;;;;3.01;82.88;99507.35;106608;1296;22138;-57
2022/10/20 05:30:05;;;;;;;3.80;1.20;;;;;;;2.99;82.84;99505.61;106601;1303;138138;-57
2022/10/20 05:32:32;;;;;;;2.30;1.50;;;;;;;3.00;83.12;99514.48;106620;1305;22114;-57
2022/10/20 05:34:59;;;;;;;1.90;1.70;;;;;;;3.01;83.13;99519.98;106573;1305;138508;-57
2022/10/20 05:37:26;;;;;;;3.50;1.70;;;;;;;2.99;83.26;99518.86;106607;1303;22129;-57
2022/10/20 05:39:53;;;;;;;3.90;1.30;;;;;;;2.98;83.50;99520.39;106619;1305;22186;-61
2022/10/20 05:42:20;;;;;;;;;;;;;;;2.97;83.65;99520.10;106627;1298;138405;-62
2022/10/20 05:44:46;;;;;;;2.20;1.70;;;;;;;2.95;84.16;99521.22;106618;1305;22165;-62
2022/10/20 05:47:13;;;;;;;6.60;1.50;;;;;;;2.97;84.08;99527.14;106607;1298;139366;-61
2022/10/20 05:49:40;;;;;;;2.60;1.90;;;;;;;2.95;84.31;99534.42;106552;1298;22173;-61
2022/10/20 05:52:07;;;;;;;;;;;;;;;2.95;84.69;99537.40;106640;1305;22364;-61
2022/10/20 05:54:33;;;;;;;5.60;3.40;;;;;;;2.95;84.65;99540.48;106503;1305;124506;-60
2022/10/20 05:57:00;;;;;;;3.00;2.00;;;;;;;2.93;85.00;99542.01;106592;1306;22158;-60
2022/10/20 05:59:27;;;;;;;3.90;2.50;;;;;;;2.90;85.00;99544.06;106456;1305;137572;-60
2022/10/20 06:01:54;;;;;;;4.70;1.50;;;;;;;2.88;85.09;99543.00;106602;1305;22182;-60
2022/10/20 06:04:22;;;;;;;2.50;1.40;;;;;;;2.87;85.16;99548.11;106600;1305;22145;-60
2022/10/20 06:06:50;;;;;;;2.80;1.40;;;;;;;2.81;85.21;99554.05;106471;1297;139257;-60
2022/10/20 06:09:17;;;;;;;4.00;1.50;;;;;;;2.76;85.63;99550.94;106588;1305;22113;-60
2022/10/20 06:11:44;;;;;;;;;;;;;;;2.74;86.06;99553.40;106529;1305;139312;-61
2022/10/20 06:14:10;;;;;;;2.10;1.30;;;;;;;2.71;86.31;99552.52;106597;1305;22205;-60
2022/10/20 06:16:37;;;;;;;9.20;1.60;;;;;;;2.66;86.65;99552.81;106623;1305;23495;-61
2022/10/20 06:19:06;;;;;;;3.30;1.40;;;;;;;2.71;86.94;99556.42;106461;1303;138243;-62
2022/10/20 06:21:33;;;;;;;3.70;1.40;;;;;;;2.74;87.07;99557.07;106619;1305;22163;-61
2022/10/20 06:24:00;;;;;;;1.60;1.40;;;;;;;2.75;87.01;99558.19;106595;1304;137944;-61
2022/10/20 06:26:35;;;;;;;1.80;1.20;;;;;;;2.78;87.18;99561.29;106591;1306;23228;-61
2022/10/20 06:29:03;;;;;;;3.40;1.40;;;;;;;2.77;87.35;99561.09;106482;1305;139088;-61
2022/10/20 06:31:33;;;;;;;2.80;1.70;;;;;;;2.75;87.22;99560.96;106612;1305;22115;-62
2022/10/20 06:34:00;;;;;;;2.90;1.50;;;;;;;2.75;87.48;99563.02;106573;1306;22161;-61
2022/10/20 06:36:26;;;;;;;;;;;;;;;2.77;87.50;99567.45;106516;1305;138125;-61
2022/10/20 06:38:54;;;;;;;2.50;1.60;;;;;;;2.76;87.69;99566.00;106579;1306;22298;-60
2022/10/20 06:41:21;;;;;;;5.80;1.70;;;;;;;2.74;87.73;99568.42;106504;1306;137817;-59
2022/10/20 06:43:48;;;;;;;;;;;;;;;2.75;87.96;99570.92;106714;1305;22456;-60
2022/10/20 06:46:16;;;;;;;4.30;2.20;;;;;;;2.79;88.07;99574.41;106586;1305;22196;-60
2022/10/20 06:48:43;;;;;;;2.90;2.20;;;;;;;2.80;88.30;99572.23;106483;1302;139030;-60
2022/10/20 06:51:12;;;;;;;1.70;1.50;;;;;;;2.82;88.27;99576.98;106610;1305;23399;-60
2022/10/20 06:53:39;;;;;;;2.30;1.80;;;;;;;2.87;88.33;99579.42;106470;1297;140199;-60
2022/10/20 06:56:13;;;;;;;4.50;2.30;;;;;;;2.90;88.20;99584.92;106607;1305;22103;-60
2022/10/20 06:58:40;;;;;;;5.20;2.10;;;;;;;2.90;88.43;99582.73;106710;1303;22166;-60
2022/10/20 07:01:13;;;;;;;3.80;1.90;;;;;;;2.91;88.23;99588.94;106469;1304;138501;-60
2022/10/20 07:03:40;;;;;;;2.60;2.10;;;;;;;2.91;88.06;99588.52;106604;1305;22862;-60
2022/10/20 07:06:07;;;;;;;3.10;1.90;;;;;;;2.90;88.23;99583.85;106492;1305;138139;-60
2022/10/20 07:08:34;;;;;;;3.70;2.90;;;;;;;2.95;88.17;99591.11;106597;1305;22254;-59
2022/10/20 07:11:06;;;;;;;2.00;1.80;;;;;;;2.95;88.23;99591.92;106474;1305;138938;-60
2022/10/20 07:13:34;;;;;;;4.30;1.60;;;;;;;2.98;88.30;99591.40;106717;1294;23506;-59
2022/10/20 07:16:00;;;;;;;5.10;3.10;;;;;;;2.99;88.21;99596.98;106555;1287;22184;-59
2022/10/20 07:18:27;;;;;;;;;;;;;;;2.99;88.07;99595.21;106515;1305;138031;-61
2022/10/20 07:20:58;;;;;;;3.90;1.90;;;;;;;2.94;87.97;99596.73;106610;1301;23450;-62
2022/10/20 07:23:26;;;;;;;4.00;1.70;;;;;;;2.95;88.14;99603.40;106471;1296;138800;-62
2022/10/20 07:26:02;;;;;;;3.70;1.80;;;;;;;2.93;88.07;99599.71;106551;1295;22161;-62
2022/10/20 07:28:29;;;;;;;5.40;3.10;;;;;;;2.93;88.27;99605.55;106550;1297;22141;-62
2022/10/20 07:30:56;;;;;;;;;;;;;;;2.95;88.70;99604.23;106477;1308;137896;-62
2022/10/20 07:33:22;;;;;;;;;;;;;;;2.97;88.75;99604.60;106628;1294;22564;-62
2022/10/20 07:35:49;;;;;;;;;;;;;;;2.99;88.77;99607.00;106515;1305;124675;-63
2022/10/20 07:38:16;;;;;;;;;;;;;;;3.00;88.81;99607.60;106614;1289;22419;-62
2022/10/20 07:40:42;;;;;;;;;;;;;;;2.99;88.84;99610.95;103771;1306;25356;-61
2022/10/20 07:43:09;;;;;;;;;;;;;;;2.99;88.81;99614.96;102179;1287;124976;-62
2022/10/20 07:45:36;;;;;;;;;;;;;;;2.97;88.76;99618.56;102224;1297;22564;-63
2022/10/20 07:48:03;;;;;;;;;;;;;;;2.95;88.84;99618.39;102110;1303;124651;-63
2022/10/20 07:50:29;;;;;;;;;;;;;;;2.91;89.16;99617.05;102160;1305;22490;-63
2022/10/20 07:52:56;;;;;;;;;;;;;;;2.95;89.21;99628.15;102141;1295;124483;-63
2022/10/20 07:55:23;;;;;;;;;;;;;;;2.98;89.26;99628.36;102193;1295;22449;-63
2022/10/20 07:58:04;;;;;;;;;;;;;;;2.95;89.49;99621.66;102222;1303;24318;-61
2022/10/20 08:00:31;;;;;;;;;;;;;;;2.98;89.48;99631.60;102087;1305;125001;-60
2022/10/20 08:02:57;;;;;;;;;;;;;;;2.99;89.66;99631.98;106360;1313;22545;-61
2022/10/20 08:05:25;;;;;;;;;;;;;;;2.99;89.83;99628.41;106560;1304;124680;-62
2022/10/20 08:07:52;;;;;;;;;;;;;;;3.03;89.65;99633.55;106644;1306;22451;-62
2022/10/20 08:10:18;;;;;;;;;;;;;;;3.04;89.82;99634.48;106595;1305;23234;-62
2022/10/20 08:12:45;;;;;;;;;;;;;;;3.05;89.81;99635.11;106562;1297;124496;-62
2022/10/20 08:15:12;;;;;;;;;;;;;;;3.05;89.97;99637.89;106547;1305;23537;-61
2022/10/20 08:17:40;;;;;;;;;;;;;;;3.06;90.02;99638.34;106623;1303;125926;-61
2022/10/20 08:20:06;;;;;;;;;;;;;;;3.07;90.13;99636.06;106717;1303;22362;-62
2022/10/20 08:22:50;;;;;;;;;;;;;;;3.08;90.10;99638.89;106546;1305;125499;-62
2022/10/20 08:25:16;;;;;;;;;;;;;;;3.12;90.09;99644.56;106651;1295;23109;-62
2022/10/20 08:27:43;;;;;;;;;;;;;;;3.17;90.07;99649.58;106679;1294;23468;-62
2022/10/20 08:30:10;;;;;;;;;;;;;;;3.20;90.00;99650.61;106466;1303;124204;-62
2022/10/20 08:32:51;;;;;;;;;;;;;;;3.24;89.73;99653.39;106611;1305;23397;-63
2022/10/20 08:35:19;;;;;;;;;;;;;;;3.24;89.57;99652.77;106548;1303;124277;-63
2022/10/20 08:37:45;;;;;;;;;;;;;;;3.27;89.74;99657.41;105813;1305;1070523;-62
2022/10/20 08:42:11;;;;;;;5.00;1.80;;;;;;;3.34;90.03;99668.02;99333;1336;545078;-61
2022/10/20 08:44:38;;;;;;;3.70;1.50;;;;;;;3.31;89.73;99662.64;101032;1301;24451;-62
2022/10/20 08:47:23;;;;;;;4.50;2.00;;;;;;;3.28;89.76;99659.44;100904;1308;137426;-63
2022/10/20 08:49:54;;;;;;;3.60;1.90;;;;;;;3.31;89.82;99670.52;100849;1317;24995;-61
2022/10/20 08:52:22;;;;;;;4.90;2.40;;;;;;;3.32;90.07;99672.52;100965;1307;26640;-63
2022/10/20 08:54:51;;;;;;;3.70;2.30;;;;;;;3.31;89.97;99679.50;100215;1320;978563;-63
2022/10/20 08:57:30;;;;;;;3.10;2.30;;;;;;;3.30;90.08;99674.41;101014;1306;22482;-57
2022/10/20 09:00:21;;;;;;;4.40;2.60;;;;;;;3.33;90.13;99682.46;105689;1315;138012;-60
2022/10/20 09:02:49;;;;;;;2.80;1.90;;;;;;;3.35;90.52;99679.52;106026;1297;22330;-65
2022/10/20 09:05:24;;;;;;;2.80;2.20;;;;;;;3.41;90.44;99685.87;106100;1310;138745;-60
2022/10/20 09:07:59;;;;;;;5.80;2.20;;;;;;;3.41;90.29;99687.03;106064;1307;22917;-61
2022/10/20 09:10:39;;;;;;;3.00;2.10;;;;;;;3.39;90.20;99685.86;106039;1313;23171;-61
2022/10/20 09:13:10;;;;;;;3.10;2.30;;;;;;;3.39;90.16;99689.30;105833;1315;137188;-61
2022/10/20 09:15:37;;;;;;;3.70;2.30;;;;;;;3.42;90.57;99692.88;106388;1297;22227;-61
2022/10/20 09:18:08;;;;;;;;;;;;;;;3.44;90.43;99691.51;106315;1306;137424;-61
2022/10/20 09:21:05;;;;;;;6.30;3.10;;;;;;;3.46;90.63;99692.11;106515;1306;22401;-61
2022/10/20 09:23:43;;;;;;;3.50;2.60;;;;;;;3.50;90.83;99699.23;106323;1303;138480;-61
2022/10/20 09:26:11;;;;;;;5.80;3.70;;;;;;;3.56;90.84;99698.00;106630;1303;22366;-62
2022/10/20 09:29:05;;;;;;;4.40;2.50;;;;;;;3.61;90.80;99701.73;106513;1303;138716;-61
2022/10/20 09:31:50;;;;;;;4.30;2.50;;;;;;;3.66;90.29;99704.33;106686;1303;22667;-62
2022/10/20 09:34:22;;;;;;;5.50;3.00;;;;;;;3.68;90.27;99704.58;106668;1298;23426;-62
2022/10/20 09:36:50;;;;;;;4.80;2.60;;;;;;;3.70;89.93;99709.55;106573;1303;137739;-60
2022/10/20 09:39:19;;;;;;;6.80;4.50;;;;;;;3.72;90.00;99713.74;106313;1303;22532;-62
2022/10/20 09:41:47;;;;;;;8.10;3.70;;;;;;;3.71;89.86;99712.95;106627;1296;138087;-60
2022/10/20 09:44:16;;;;;;;6.20;2.70;;;;;;;3.76;89.70;99716.79;106677;1288;22455;-60
2022/10/20 09:46:47;;;;;;;4.90;2.40;;;;;;;3.77;89.81;99716.88;106555;1292;22912;-60
2022/10/20 09:49:33;;;;;;;3.10;2.40;;;;;;;3.78;89.47;99722.34;106758;1288;22305;-61
2022/10/20 09:52:01;;;;;;;4.00;2.60;;;;;;;3.81;89.13;99725.29;106748;1286;22849;-61
2022/10/20 09:54:27;;;;;;;3.30;2.30;;;;;;;3.82;89.15;99723.34;106618;1303;137967;-61
2022/10/20 09:57:03;;;;;;;3.80;2.50;;;;;;;3.84;89.18;99726.45;106746;1286;23038;-60
2022/10/20 09:59:37;;;;;;;4.60;2.20;;;;;;;3.87;89.14;99728.32;106683;1302;138100;-60
2022/10/20 10:02:13;;;;;;;2.90;2.10;;;;;;;3.91;89.14;99736.42;106757;1302;22198;-60
2022/10/20 10:04:42;;;;;;;6.30;2.50;;;;;;;3.92;88.73;99740.65;106788;1302;22120;-60
2022/10/20 10:07:24;;;;;;;8.20;2.80;;;;;;;3.91;88.69;99740.52;106770;1303;137345;-61
2022/10/20 10:09:55;;;;;;;3.30;2.70;;;;;;;3.91;88.75;99736.91;106791;1286;22119;-61
2022/10/20 10:12:22;;;;;;;5.90;3.80;;;;;;;3.92;88.94;99745.79;106677;1302;138608;-61
2022/10/20 10:15:04;;;;;;;6.40;3.40;;;;;;;3.95;89.25;99742.19;106732;1303;22154;-61
2022/10/20 10:17:32;;;;;;;5.30;3.20;;;;;;;3.98;89.02;99744.14;106620;1303;138314;-63
2022/10/20 10:20:00;;;;;;;3.50;2.50;;;;;;;4.00;88.94;99745.01;106772;1302;22189;-61
2022/10/20 10:22:27;;;;;;;4.40;2.70;;;;;;;3.96;88.72;99738.50;106773;1302;22141;-62
2022/10/20 10:24:54;;;;;;;;;;;;;;;4.01;88.85;99751.14;106652;1301;137306;-61
2022/10/20 10:27:22;;;;;;;5.60;2.70;;;;;;;4.03;88.70;99750.82;106694;1295;22144;-61
2022/10/20 10:29:49;;;;;;;3.60;2.50;;;;;;;4.05;88.74;99752.03;106657;1294;137325;-62
2022/10/20 10:32:26;;;;;;;5.20;3.30;;;;;;;4.09;88.86;99751.66;106523;1302;22515;-62
2022/10/20 10:34:59;;;;;;;6.10;3.00;;;;;;;4.15;88.85;99758.27;106651;1285;138528;-62
2022/10/20 10:37:27;;;;;;;6.10;3.20;;;;;;;4.21;88.21;99751.71;106779;1302;22816;-62
2022/10/20 10:40:01;;;;;;;9.40;3.20;;;;;;;4.25;88.11;99752.98;106771;1302;22473;-62
2022/10/20 10:42:34;;;;;;;3.70;2.40;;;;;;;4.30;87.97;99756.23;106599;1296;137229;-62
2022/10/20 10:45:09;;;;;;;5.30;2.60;;;;;;;4.36;87.72;99757.94;106771;1286;22120;-61
2022/10/20 10:48:07;;;;;;;6.00;2.60;;;;;;;4.41;87.71;99755.19;106670;1302;138554;-61
2022/10/20 10:50:46;;;;;;;12.60;7.10;;;;;;;4.47;87.21;99751.73;106766;1302;22522;-61
2022/10/20 10:53:31;;;;;;;3.90;2.60;;;;;;;4.51;86.29;99758.89;106630;1302;139034;-62
2022/10/20 10:56:07;;;;;;;13.10;8.00;;;;;;;4.55;85.95;99754.03;106799;1302;22124;-63
2022/10/20 10:58:44;;;;;;;5.00;3.00;;;;;;;4.61;86.01;99753.09;106885;1300;22131;-62
2022/10/20 11:01:42;;;;;;;4.70;2.50;;;;;;;4.68;85.78;99756.13;106687;1302;137923;-63
2022/10/20 11:04:22;;;;;;;7.00;2.30;;;;;;;4.74;85.32;99746.31;106754;1302;22128;-62
2022/10/20 11:06:56;;;;;;;4.20;2.30;;;;;;;4.77;84.59;99742.23;106655;1302;137422;-62
2022/10/20 11:09:50;;;;;;;4.20;2.10;;;;;;;4.81;84.68;99745.98;106780;1302;22156;-62
2022/10/20 11:12:32;;;;;;;4.20;2.50;;;;;;;4.88;84.54;99740.94;106121;1301;137654;-63
2022/10/20 11:15:19;;;;;;;2.20;2.00;;;;;;;4.96;84.88;99735.60;106097;1308;22184;-65
2022/10/20 11:18:27;;;;;;;3.10;1.90;;;;;;;5.07;84.28;99741.48;106063;1308;138486;-62
2022/10/20 11:21:44;;;;;;;3.20;2.40;;;;;;;5.13;83.55;99750.66;105918;1311;22280;-59
2022/10/20 11:24:29;;;;;;;3.40;1.60;;;;;;;5.15;82.82;99762.09;104981;1320;138738;-60
2022/10/20 11:27:00;;;;;;;3.00;2.20;;;;;;;5.12;82.73;99765.38;105118;1320;22403;-61
2022/10/20 11:29:31;;;;;;;4.50;1.80;;;;;;;5.11;82.91;99766.01;104986;1320;137511;-58
2022/10/20 11:32:13;;;;;;;8.00;2.10;;;;;;;5.10;82.46;99763.90;105165;1320;22147;-60
2022/10/20 11:34:49;;;;;;;2.90;1.90;;;;;;;5.08;83.19;99768.98;105198;1320;22276;-60
2022/10/20 11:37:22;;;;;;;3.10;1.60;;;;;;;5.11;83.57;99768.46;105122;1320;22235;-60
2022/10/20 11:40:10;;;;;;;3.30;2.00;;;;;;;5.12;82.88;99771.49;105141;1305;22640;-60
2022/10/20 11:43:11;;;;;;;2.70;2.00;;;;;;;5.12;83.32;99770.58;104989;1312;137729;-61
2022/10/20 11:45:51;;;;;;;4.20;1.70;;;;;;;5.12;83.32;99774.89;105192;1312;22210;-60
2022/10/20 11:48:20;;;;;;;3.80;2.10;;;;;;;5.12;83.51;99780.02;105119;1319;137893;-60
2022/10/20 11:50:50;;;;;;;2.80;2.00;;;;;;;5.14;83.72;99783.28;105359;1317;22299;-58
2022/10/20 11:53:34;;;;;;;4.70;2.10;;;;;;;5.17;83.71;99784.31;105298;1312;137883;-61
2022/10/20 11:56:22;;;;;;;3.90;2.30;;;;;;;5.17;83.57;99787.01;106176;1303;22172;-60
2022/10/20 11:58:55;;;;;;;4.50;2.40;;;;;;;5.19;83.87;99789.99;106592;1301;138633;-59
2022/10/20 12:01:29;;;;;;;12.60;7.40;;;;;;;5.19;83.14;99793.48;106792;1302;22118;-60